createdAt,value
2019-06-08T00:07:18.875Z,97544.00
2019-06-08T00:18:01.558Z,97550.00
2019-06-08T00:28:45.326Z,97542.00
2019-06-08T00:39:28.532Z,97614.00
2019-06-08T00:50:12.464Z,97618.00
2019-06-08T01:00:58.013Z,97623.00
2019-06-08T01:11:40.422Z,97645.00
2019-06-08T01:22:23.690Z,97677.00
2019-06-08T01:33:08.629Z,97688.00
2019-06-08T01:43:51.487Z,97715.00
2019-06-08T01:54:35.494Z,97759.00
2019-06-08T02:05:20.540Z,97790.00
2019-06-08T02:15:56.410Z,97805.00
2019-06-08T02:26:36.611Z,97841.00
2019-06-08T02:37:19.698Z,97894.00
2019-06-08T02:48:04.228Z,97909.00
2019-06-08T02:58:49.578Z,97947.00
2019-06-08T03:09:34.765Z,97923.00
2019-06-08T03:20:18.739Z,97977.00
2019-06-08T03:30:57.452Z,98004.00
2019-06-08T03:41:42.669Z,98015.00
2019-06-08T03:52:25.365Z,98054.00
2019-06-08T04:03:09.701Z,98106.00
2019-06-08T04:13:54.503Z,98115.00
2019-06-08T04:24:40.180Z,98132.00
2019-06-08T04:35:23.437Z,98171.00
2019-06-08T04:46:08.561Z,98161.00
2019-06-08T04:56:53.880Z,98129.00
2019-06-08T05:07:30.725Z,98087.00
2019-06-08T05:18:14.581Z,98140.00
2019-06-08T05:28:59.523Z,97908.00
2019-06-08T05:39:49.794Z,97501.00
2019-06-08T05:50:30.893Z,97851.00
2019-06-08T06:01:13.697Z,97939.00
2019-06-08T06:11:57.622Z,97872.00
2019-06-08T06:22:44.296Z,97641.00
2019-06-08T06:33:28.738Z,97610.00
2019-06-08T06:44:10.598Z,97738.00
2019-06-08T06:54:48.968Z,97934.00
2019-06-08T07:05:33.537Z,97579.00
2019-06-08T07:16:18.588Z,98024.00
2019-06-08T07:26:58.771Z,97894.00
2019-06-08T07:37:35.808Z,97938.00
2019-06-08T07:48:20.456Z,97966.00
2019-06-08T08:01:36.071Z,97886.00
2019-06-08T08:12:12.128Z,97917.00
2019-06-08T08:22:56.097Z,97887.00
2019-06-08T08:33:30.460Z,97809.00
2019-06-08T08:44:13.784Z,97813.00
2019-06-08T08:54:59.130Z,97870.00
2019-06-08T09:05:42.919Z,97820.00
2019-06-08T09:16:28.732Z,97792.00
2019-06-08T09:27:10.794Z,97763.00
2019-06-08T09:37:48.754Z,97706.00
2019-06-08T09:48:31.657Z,97702.00
2019-06-08T09:59:16.379Z,97664.00
2019-06-08T10:10:02.794Z,97695.00
2019-06-08T10:20:48.036Z,97676.00
2019-06-08T10:31:27.662Z,97676.00
2019-06-08T10:42:05.260Z,97700.00
2019-06-08T10:52:43.028Z,97637.00
2019-06-08T11:03:30.399Z,97579.00
2019-06-08T11:14:10.293Z,97571.00
2019-06-08T11:24:49.646Z,97668.00
2019-06-08T11:35:32.952Z,97730.00
2019-06-08T11:46:20.853Z,97703.00
2019-06-08T11:57:02.835Z,97527.00
2019-06-08T12:07:48.133Z,97488.00
2019-06-08T12:18:33.011Z,97574.00
2019-06-08T12:29:18.896Z,97603.00
2019-06-08T12:40:01.182Z,97509.00
2019-06-08T12:50:43.894Z,97543.00
2019-06-08T13:01:28.214Z,97694.00
2019-06-08T13:12:09.722Z,97670.00
2019-06-08T13:22:44.860Z,97683.00
2019-06-08T13:33:28.050Z,97710.00
2019-06-08T13:44:09.796Z,97550.00
2019-06-08T13:54:58.206Z,97587.00
2019-06-08T14:05:40.107Z,97675.00
2019-06-08T14:16:23.804Z,97766.00
2019-06-08T14:27:08.058Z,97640.00
2019-06-08T14:37:49.025Z,97507.00
2019-06-08T14:48:33.928Z,97446.00
2019-06-08T14:59:18.817Z,97365.00
2019-06-08T15:09:58.190Z,97301.00
2019-06-08T15:20:41.997Z,97317.00
2019-06-08T15:31:25.193Z,97394.00
2019-06-08T15:42:08.887Z,97434.00
2019-06-08T15:52:50.198Z,97490.00
2019-06-08T16:03:33.555Z,97493.00
2019-06-08T16:14:06.045Z,97552.00
2019-06-08T16:24:48.500Z,97607.00
2019-06-08T16:35:31.524Z,97586.00
2019-06-08T16:46:15.160Z,97550.00
2019-06-08T16:57:09.564Z,97598.00
2019-06-08T17:07:44.908Z,97734.00
2019-06-08T17:18:29.871Z,97851.00
2019-06-08T17:29:12.033Z,97918.00
2019-06-08T17:39:53.816Z,97944.00
2019-06-08T17:50:36.530Z,98018.00
2019-06-08T18:01:18.868Z,98010.00
2019-06-08T18:12:07.389Z,97935.00
2019-06-08T18:22:49.294Z,97970.00
2019-06-08T18:33:31.015Z,97999.00
2019-06-08T18:44:17.414Z,98073.00
2019-06-08T18:54:57.925Z,98146.00
2019-06-08T19:05:45.230Z,98192.00
2019-06-08T19:16:28.518Z,98255.00
2019-06-08T19:27:01.267Z,98274.00
2019-06-08T19:37:37.709Z,98338.00
2019-06-08T19:48:09.217Z,98356.00
2019-06-08T19:58:58.428Z,98409.00
2019-06-08T20:09:28.346Z,98475.00
2019-06-08T20:19:58.736Z,98534.00
2019-06-08T20:30:35.993Z,98577.00
2019-06-08T20:41:18.265Z,98696.00
2019-06-08T20:52:00.117Z,98732.00
2019-06-08T21:02:37.246Z,98825.00
2019-06-08T21:13:15.733Z,98895.00
2019-06-08T21:23:59.794Z,98892.00
2019-06-08T21:34:38.060Z,98958.00
2019-06-08T21:45:18.904Z,98950.00
2019-06-08T21:55:54.333Z,99002.00
2019-06-08T22:06:33.299Z,99066.00
2019-06-08T22:17:10.965Z,99068.00
2019-06-08T22:27:44.264Z,99088.00
2019-06-08T22:38:25.200Z,99113.00
2019-06-08T22:49:15.150Z,99162.00
2019-06-08T22:59:51.355Z,99170.00
2019-06-08T23:10:37.439Z,99192.00
2019-06-08T23:21:20.024Z,99213.00
2019-06-08T23:32:04.844Z,99236.00
2019-06-08T23:42:47.737Z,99244.00
2019-06-08T23:53:31.049Z,99284.00
